Time;durP1;ratioP1;P1;durP2;ratioP2;P2;SDS_P1;SDS_P2;PMS_P1;PMS_P2;Temp;Humidity;BMP_temperature;BMP_pressure;BME280_temperature;BME280_humidity;BME280_pressure;Samples;Min_cycle;Max_cycle;Signal;HPM_P1;HPM_P2
2023/03/18 00:01:08;;;;;;;11.27;5.53;;;;;;;6.79;39.95;97600.28;9921552;29;20112;-77
2023/03/18 00:06:32;;;;;;;10.63;5.85;;;;;;;6.63;40.26;97596.94;9921581;29;20337;-76
2023/03/18 00:11:55;;;;;;;9.98;5.40;;;;;;;6.53;39.92;97602.41;9933398;29;20510;-77
2023/03/18 00:17:17;;;;;;;13.18;5.53;;;;;;;6.48;39.94;97606.19;9933325;29;20051;-77
2023/03/18 00:23:16;;;;;;;10.40;5.13;;;;;;;6.42;39.71;97614.00;9927632;29;20050;-77
2023/03/18 00:29:09;;;;;;;10.60;5.32;;;;;;;6.41;39.92;97623.63;9928617;29;20055;-76
2023/03/18 00:34:30;;;;;;;10.37;5.83;;;;;;;6.37;39.97;97614.97;9920425;29;20558;-77
2023/03/18 00:40:29;;;;;;;9.85;6.05;;;;;;;6.40;40.01;97632.50;9920020;29;20059;-76
2023/03/18 00:45:55;;;;;;;10.63;5.63;;;;;;;6.29;40.38;97622.63;9933551;29;20061;-77
2023/03/18 00:51:47;;;;;;;11.73;5.80;;;;;;;6.25;40.16;97616.75;9932180;29;20058;-77
2023/03/18 00:57:38;;;;;;;12.10;5.68;;;;;;;6.15;40.48;97618.69;9943371;29;20059;-77
2023/03/18 01:03:38;;;;;;;10.48;5.45;;;;;;;6.13;40.47;97618.53;9943126;29;20080;-77
2023/03/18 01:09:00;;;;;;;13.15;6.00;;;;;;;6.06;41.06;97611.00;9940923;29;20135;-77
2023/03/18 01:14:48;;;;;;;13.27;5.82;;;;;;;5.98;40.94;97609.06;9933689;29;20059;-77
2023/03/18 01:20:44;;;;;;;12.63;6.30;;;;;;;5.93;41.20;97612.03;9952710;29;20051;-77
2023/03/18 01:26:06;;;;;;;11.88;6.03;;;;;;;5.83;41.20;97606.38;9926967;29;20481;-77
2023/03/18 01:31:28;;;;;;;11.82;5.72;;;;;;;5.74;41.40;97604.22;9924783;29;20059;-77
2023/03/18 01:37:10;;;;;;;10.35;5.47;;;;;;;5.71;41.94;97594.28;9939781;29;20514;-77
2023/03/18 01:43:37;;;;;;;13.13;5.82;;;;;;;5.60;42.32;97580.91;9925321;29;20486;-76
2023/03/18 01:50:11;;;;;;;12.77;5.67;;;;;;;5.46;42.36;97583.94;9938940;29;20137;-77
2023/03/18 01:55:32;;;;;;;12.65;6.03;;;;;;;5.37;41.79;97594.88;9949986;29;20336;-77
2023/03/18 02:01:06;;;;;;;14.20;5.45;;;;;;;5.38;42.71;97596.34;9925006;29;20483;-77
2023/03/18 02:06:28;;;;;;;11.17;5.97;;;;;;;5.36;42.82;97596.91;9925502;29;20058;-77
2023/03/18 02:11:57;;;;;;;10.82;5.53;;;;;;;5.32;42.59;97593.81;9938231;29;20502;-77
2023/03/18 02:17:23;;;;;;;16.00;5.95;;;;;;;5.25;43.25;97602.91;9925039;29;20066;-77
2023/03/18 02:22:49;;;;;;;10.52;5.35;;;;;;;5.22;42.90;97601.25;9912035;29;20054;-77
2023/03/18 02:28:13;;;;;;;11.07;5.40;;;;;;;5.12;43.03;97592.09;9924316;29;20115;-77
2023/03/18 02:34:02;;;;;;;10.27;5.55;;;;;;;5.09;43.15;97609.78;9909775;29;20084;-77
2023/03/18 02:40:35;;;;;;;11.10;5.68;;;;;;;5.06;43.11;97617.19;9930715;29;20054;-77
2023/03/18 02:46:22;;;;;;;15.25;6.68;;;;;;;5.01;43.41;97609.09;9925631;29;20054;-77
2023/03/18 02:51:45;;;;;;;11.38;5.70;;;;;;;4.93;43.88;97613.94;9924268;29;20050;-77
2023/03/18 02:58:09;;;;;;;10.65;5.22;;;;;;;4.84;44.52;97618.78;9931404;29;20054;-77
2023/03/18 03:03:42;;;;;;;12.55;6.07;;;;;;;4.74;44.17;97612.38;9923312;29;20059;-77
2023/03/18 03:09:35;;;;;;;12.32;6.50;;;;;;;4.64;44.35;97621.81;9931354;29;20414;-77
2023/03/18 03:15:26;;;;;;;10.90;5.55;;;;;;;4.59;44.89;97621.44;9930356;29;20470;-77
2023/03/18 03:21:59;;;;;;;9.00;4.93;;;;;;;4.56;44.64;97643.94;9930087;29;20055;-77
2023/03/18 03:27:49;;;;;;;10.05;5.90;;;;;;;4.50;44.39;97646.16;9948138;29;20051;-76
2023/03/18 03:34:49;;;;;;;13.85;5.60;;;;;;;4.50;46.65;97646.88;9939261;29;20051;-77
2023/03/18 03:40:42;;;;;;;11.77;5.65;;;;;;;4.53;46.30;97659.59;9947170;29;20062;-77
2023/03/18 03:46:36;;;;;;;10.40;6.00;;;;;;;4.45;45.85;97658.16;9938743;29;20055;-76
2023/03/18 03:53:30;;;;;;;10.32;5.45;;;;;;;4.42;46.13;97673.06;9928345;29;20085;-77
2023/03/18 03:58:59;;;;;;;10.80;5.80;;;;;;;4.32;46.22;97665.34;9947366;29;20055;-77
2023/03/18 04:05:57;;;;;;;12.98;6.28;;;;;;;4.28;46.72;97669.78;9939803;29;20108;-77
2023/03/18 04:11:49;;;;;;;11.63;4.95;;;;;;;4.24;46.22;97674.91;9936667;29;20504;-77
2023/03/18 04:17:39;;;;;;;10.88;5.38;;;;;;;4.19;46.51;97684.88;9934239;29;20471;-77
2023/03/18 04:23:02;;;;;;;10.70;5.40;;;;;;;4.10;46.15;97682.66;9930006;29;20061;-77
2023/03/18 04:29:02;;;;;;;11.10;5.68;;;;;;;4.08;47.30;97679.72;9905764;29;20426;-78
2023/03/18 04:34:52;;;;;;;10.50;5.32;;;;;;;4.13;46.86;97676.03;9924431;29;20054;-77
2023/03/18 04:40:49;;;;;;;10.88;5.63;;;;;;;4.08;47.17;97687.28;9936110;29;20512;-77
2023/03/18 04:47:12;;;;;;;10.95;5.63;;;;;;;4.07;47.96;97700.34;9918317;29;20062;-77
2023/03/18 04:53:34;;;;;;;11.50;5.97;;;;;;;4.11;47.74;97695.19;9937024;29;20063;-77
2023/03/18 04:59:26;;;;;;;12.00;6.00;;;;;;;4.09;47.74;97686.72;9945896;29;20055;-77
2023/03/18 05:04:48;;;;;;;11.07;6.30;;;;;;;4.11;47.69;97684.13;9921424;29;20051;-77
2023/03/18 05:10:11;;;;;;;13.35;5.90;;;;;;;4.13;47.58;97692.59;9933001;29;20054;-77
2023/03/18 05:15:36;;;;;;;13.73;5.80;;;;;;;4.18;47.76;97682.66;9920966;29;20058;-77
2023/03/18 05:21:08;;;;;;;14.30;6.20;;;;;;;4.32;47.85;97692.97;9919855;29;20130;-77
2023/03/18 05:27:00;;;;;;;12.63;5.50;;;;;;;4.53;47.20;97686.50;9927960;29;20094;-77
2023/03/18 05:32:32;;;;;;;11.55;5.78;;;;;;;4.74;47.73;97687.03;9898308;29;20082;-77
2023/03/18 05:38:37;;;;;;;13.07;6.10;;;;;;;5.01;46.62;97703.16;9899173;29;20059;-77
2023/03/18 05:45:04;;;;;;;13.77;6.47;;;;;;;5.41;46.37;97703.19;9918353;29;20418;-77
2023/03/18 05:50:38;;;;;;;12.88;6.50;;;;;;;5.84;46.06;97713.09;9915740;29;20079;-77
2023/03/18 05:56:03;;;;;;;13.05;6.45;;;;;;;6.58;45.71;97703.31;9908316;29;20132;-77
2023/03/18 06:01:29;;;;;;;19.08;6.75;;;;;;;7.47;44.74;97710.47;9932518;29;20529;-77
2023/03/18 06:07:26;;;;;;;12.00;6.70;;;;;;;8.67;41.31;97704.25;9932261;29;20415;-77
2023/03/18 06:13:05;;;;;;;10.57;6.57;;;;;;;9.00;41.47;97713.66;9927418;29;20460;-77
2023/03/18 06:18:35;;;;;;;11.77;7.05;;;;;;;9.69;40.81;97709.50;9939011;29;20081;-77
2023/03/18 06:24:03;;;;;;;11.13;6.15;;;;;;;10.81;38.44;97714.34;9906806;29;20142;-77
2023/03/18 06:29:32;;;;;;;13.57;7.22;;;;;;;11.97;37.91;97725.25;9898715;30;20456;-77
2023/03/18 06:35:00;;;;;;;11.43;6.65;;;;;;;12.17;36.71;97719.44;9891604;29;20499;-77
2023/03/18 06:40:24;;;;;;;12.37;6.93;;;;;;;11.74;35.64;97716.75;9902428;30;20059;-77
2023/03/18 06:45:58;;;;;;;13.45;6.65;;;;;;;10.75;34.07;97720.22;9890673;30;20288;-77
2023/03/18 06:51:20;;;;;;;15.00;7.50;;;;;;;10.19;34.91;97722.69;9903898;30;20491;-77
2023/03/18 06:57:10;;;;;;;11.02;6.45;;;;;;;10.28;35.08;97727.53;9899997;30;20055;-75
2023/03/18 07:02:32;;;;;;;10.95;6.63;;;;;;;10.46;35.99;97742.72;9895656;30;20097;-76
2023/03/18 07:07:54;;;;;;;11.95;6.40;;;;;;;11.12;36.41;97745.72;9894895;30;20063;-77
2023/03/18 07:13:17;;;;;;;14.60;6.45;;;;;;;11.59;35.41;97745.91;9894253;30;20495;-78
2023/03/18 07:18:39;;;;;;;13.95;6.38;;;;;;;11.97;33.22;97755.28;9892547;30;20464;-77
2023/03/18 07:24:00;;;;;;;11.18;5.97;;;;;;;12.15;33.35;97764.78;9905839;30;20460;-77
2023/03/18 07:29:23;;;;;;;10.02;5.55;;;;;;;12.07;32.61;97763.56;9892278;30;20063;-77
2023/03/18 07:34:46;;;;;;;11.77;6.20;;;;;;;11.97;32.08;97763.69;9893635;30;20055;-78
2023/03/18 07:40:08;;;;;;;18.95;6.32;;;;;;;12.25;32.01;97767.47;9893503;30;20460;-77
2023/03/18 07:45:29;;;;;;;11.18;5.53;;;;;;;12.74;30.77;97764.78;9891976;30;20070;-77
2023/03/18 07:50:53;;;;;;;13.32;6.28;;;;;;;14.02;27.96;97741.22;9903154;30;20105;-77
2023/03/18 07:56:42;;;;;;;12.43;6.32;;;;;;;15.39;28.38;97746.13;9906815;30;20055;-78
2023/03/18 08:02:32;;;;;;;8.95;5.38;;;;;;;15.01;26.70;97756.94;9913123;29;20059;-77
2023/03/18 08:08:21;;;;;;;11.70;5.45;;;;;;;15.95;25.30;97748.16;9891045;30;20059;-80
2023/03/18 08:13:43;;;;;;;10.30;5.75;;;;;;;16.70;25.32;97761.38;9895932;29;20059;-80
2023/03/18 08:19:05;;;;;;;8.80;4.72;;;;;;;18.90;22.23;97756.66;9882940;30;20083;-78
2023/03/18 08:24:26;;;;;;;7.93;4.38;;;;;;;19.76;20.13;97760.25;9904782;29;20489;-78
2023/03/18 08:29:48;;;;;;;8.30;4.18;;;;;;;21.32;19.04;97771.84;9908826;29;20847;-79
2023/03/18 08:35:10;;;;;;;7.73;4.23;;;;;;;21.51;17.74;97759.53;9925418;29;20606;-80
2023/03/18 08:40:33;;;;;;;6.70;3.70;;;;;;;20.80;18.31;97769.75;9967795;29;20050;-79
2023/03/18 08:45:54;;;;;;;6.47;4.18;;;;;;;21.93;18.22;97768.38;9955503;29;20065;-78
2023/03/18 08:51:16;;;;;;;6.63;4.35;;;;;;;22.46;16.48;97777.38;9880544;29;20090;-78
2023/03/18 08:56:37;;;;;;;7.47;4.00;;;;;;;22.20;16.28;97771.84;9881505;29;20410;-78
2023/03/18 09:01:57;;;;;;;7.35;4.28;;;;;;;22.23;16.61;97770.50;9893528;29;20506;-79
2023/03/18 09:07:18;;;;;;;7.55;4.10;;;;;;;24.07;16.50;97768.94;9879872;30;20487;-78
2023/03/18 09:12:41;;;;;;;6.23;4.13;;;;;;;30.13;10.76;97770.00;9883367;29;20521;-81
2023/03/18 09:18:02;;;;;;;6.30;3.92;;;;;;;32.95;9.72;97778.72;9924617;29;20070;-82
2023/03/18 09:23:33;;;;;;;6.85;4.10;;;;;;;34.03;8.57;97774.06;9906418;29;20061;-82
2023/03/18 09:28:54;;;;;;;4.72;3.55;;;;;;;33.22;8.95;97770.91;9962980;29;20062;-81
2023/03/18 09:34:15;;;;;;;6.00;3.95;;;;;;;33.23;9.16;97768.72;9961164;29;20058;-81
2023/03/18 09:39:36;;;;;;;4.97;3.55;;;;;;;35.62;7.37;97757.25;9974774;29;20133;-81
2023/03/18 09:44:59;;;;;;;5.45;3.63;;;;;;;35.23;7.92;97776.56;9961176;29;20054;-83
2023/03/18 09:50:23;;;;;;;7.00;4.00;;;;;;;35.17;7.90;97765.13;9974862;29;20395;-81
2023/03/18 09:55:59;;;;;;;5.55;3.72;;;;;;;32.75;8.42;97780.56;9988118;29;20574;-81
2023/03/18 10:01:21;;;;;;;4.95;3.75;;;;;;;28.35;9.64;97766.69;9975106;29;20111;-81
2023/03/18 10:06:43;;;;;;;7.43;4.15;;;;;;;26.42;11.67;97764.22;9961620;29;20058;-81
2023/03/18 10:12:34;;;;;;;6.72;4.15;;;;;;;26.52;11.66;97756.38;9974216;29;20077;-81
2023/03/18 10:18:28;;;;;;;6.68;4.10;;;;;;;27.03;11.59;97750.88;9986474;29;20089;-81
2023/03/18 10:24:26;;;;;;;8.10;4.30;;;;;;;29.09;10.92;97764.97;9970242;29;20097;-82
2023/03/18 10:30:03;;;;;;;8.77;4.20;;;;;;;28.92;10.84;97775.13;9944070;29;20066;-81
2023/03/18 10:35:37;;;;;;;7.82;4.13;;;;;;;29.32;11.33;97777.03;9930796;29;20059;-81
2023/03/18 10:40:58;;;;;;;6.28;4.95;;;;;;;31.13;10.27;97760.19;9937945;29;20055;-81
2023/03/18 10:46:20;;;;;;;10.85;5.15;;;;;;;32.69;8.43;97774.88;9949711;29;20058;-82
2023/03/18 10:52:05;;;;;;;6.18;4.53;;;;;;;29.76;10.09;97769.56;9960668;29;20111;-81
2023/03/18 10:57:26;;;;;;;6.93;4.60;;;;;;;30.35;10.16;97772.63;9966589;29;20043;-80
2023/03/18 11:02:47;;;;;;;8.60;5.30;;;;;;;27.95;10.20;97779.63;9916082;29;20051;-79
2023/03/18 11:08:09;;;;;;;9.38;5.25;;;;;;;24.50;12.10;97767.41;9893220;29;20066;-78
2023/03/18 11:13:30;;;;;;;9.70;5.07;;;;;;;23.26;13.82;97763.34;9885006;30;20445;-79
2023/03/18 11:18:51;;;;;;;9.18;5.35;;;;;;;21.81;16.04;97758.84;9916723;29;20051;-78
2023/03/18 11:24:34;;;;;;;11.77;6.00;;;;;;;20.28;17.10;97744.16;9887196;29;20438;-79
2023/03/18 11:29:57;;;;;;;10.20;5.75;;;;;;;20.16;17.68;97754.38;9895709;29;20131;-78
2023/03/18 11:35:32;;;;;;;10.05;5.78;;;;;;;19.82;17.99;97751.22;9904650;29;20502;-79
2023/03/18 11:41:12;;;;;;;9.68;6.10;;;;;;;19.29;18.51;97729.66;9947264;29;20129;-80
2023/03/18 11:46:45;;;;;;;9.23;6.00;;;;;;;19.17;18.94;97727.16;9959497;29;20058;-82
2023/03/18 11:52:30;;;;;;;8.73;6.05;;;;;;;18.80;19.48;97719.53;9958468;29;20087;-84
2023/03/18 11:58:10;;;;;;;8.98;6.15;;;;;;;18.99;19.42;97712.41;9983012;29;20085;-84
2023/03/18 12:04:08;;;;;;;9.55;6.03;;;;;;;18.92;19.73;97717.16;9970166;29;20082;-83
2023/03/18 12:09:38;;;;;;;9.10;6.03;;;;;;;19.23;19.44;97704.03;9970110;29;20498;-79
2023/03/18 12:15:04;;;;;;;10.32;6.13;;;;;;;19.30;19.38;97708.47;9945509;29;20075;-78
2023/03/18 12:20:39;;;;;;;12.40;6.80;;;;;;;19.24;19.64;97708.28;9894462;30;20233;-79
2023/03/18 12:26:10;;;;;;;11.65;6.82;;;;;;;18.65;19.73;97704.19;9895234;30;20059;-79
2023/03/18 12:32:09;;;;;;;9.70;6.68;;;;;;;18.47;20.69;97718.38;9883760;30;20067;-81
2023/03/18 12:37:42;;;;;;;10.32;6.80;;;;;;;18.23;20.66;97714.63;9973299;29;20054;-81
2023/03/18 12:43:32;;;;;;;12.17;7.07;;;;;;;18.34;20.85;97701.63;9944803;29;20061;-82
2023/03/18 12:49:05;;;;;;;11.52;7.22;;;;;;;18.46;21.22;97699.25;9987351;29;20584;-78
2023/03/18 12:54:29;;;;;;;12.18;7.50;;;;;;;18.53;21.42;97692.44;9977914;29;20069;-82
2023/03/18 13:00:00;;;;;;;12.75;7.90;;;;;;;18.02;21.50;97699.03;9955316;29;20127;-82
2023/03/18 13:05:26;;;;;;;12.60;8.27;;;;;;;17.79;21.79;97689.00;9908630;29;20051;-84
2023/03/18 13:10:52;;;;;;;14.02;8.90;;;;;;;18.24;21.73;97690.69;9911324;29;20082;-87
2023/03/18 13:16:13;;;;;;;12.55;8.90;;;;;;;18.15;21.83;97678.34;9916304;29;20138;-87
2023/03/18 13:21:39;;;;;;;13.27;8.60;;;;;;;17.95;22.21;97678.34;9915798;29;20521;-79
2023/03/18 13:27:36;;;;;;;14.05;9.63;;;;;;;17.92;22.46;97685.25;9904947;29;20134;-79
2023/03/18 13:32:57;;;;;;;15.45;9.90;;;;;;;17.93;22.44;97681.06;9916476;29;20079;-78
2023/03/18 13:38:29;;;;;;;15.20;9.77;;;;;;;17.70;22.81;97681.59;9929501;29;20217;-78
2023/03/18 13:43:50;;;;;;;15.13;9.70;;;;;;;17.39;22.96;97674.75;9927759;29;20059;-78
2023/03/18 13:49:16;;;;;;;14.18;9.75;;;;;;;16.84;23.31;97661.22;9902918;29;20319;-78
2023/03/18 13:54:38;;;;;;;15.40;9.30;;;;;;;16.77;23.57;97664.41;9917493;29;20141;-78
2023/03/18 14:00:26;;;;;;;15.48;10.18;;;;;;;16.71;24.55;97664.91;9916501;29;20137;-78
2023/03/18 14:06:02;;;;;;;17.30;9.85;;;;;;;16.57;23.97;97661.44;9916033;29;20163;-78
2023/03/18 14:11:25;;;;;;;13.65;8.65;;;;;;;16.43;24.75;97666.50;9914004;29;20130;-79
2023/03/18 14:16:52;;;;;;;17.45;8.55;;;;;;;16.80;24.37;97654.72;9928239;29;20055;-79
2023/03/18 14:22:27;;;;;;;15.85;9.00;;;;;;;17.08;24.28;97655.88;9916540;29;20055;-81
2023/03/18 14:27:53;;;;;;;14.07;9.00;;;;;;;16.69;24.21;97656.34;9924950;29;20532;-78
2023/03/18 14:33:17;;;;;;;12.95;8.32;;;;;;;16.35;24.96;97663.31;9936688;29;20070;-82
2023/03/18 14:39:07;;;;;;;13.70;8.85;;;;;;;16.36;24.56;97654.22;9949890;29;20059;-79
2023/03/18 14:44:51;;;;;;;16.63;8.13;;;;;;;16.54;24.74;97659.91;9949733;29;20075;-81
2023/03/18 14:50:15;;;;;;;15.32;8.30;;;;;;;16.67;24.61;97649.88;9925352;29;20055;-77
2023/03/18 14:55:36;;;;;;;13.45;8.57;;;;;;;16.82;25.12;97644.22;9936492;29;20050;-82
2023/03/18 15:01:36;;;;;;;14.90;9.13;;;;;;;16.79;25.13;97639.88;9930544;29;20055;-83
2023/03/18 15:06:59;;;;;;;12.50;9.15;;;;;;;16.71;24.74;97633.91;9918031;29;20099;-79
2023/03/18 15:13:00;;;;;;;17.70;9.55;;;;;;;16.34;25.68;97628.06;9898917;29;20070;-78
2023/03/18 15:18:28;;;;;;;15.23;9.47;;;;;;;16.12;25.68;97625.00;9960649;29;20058;-77
2023/03/18 15:23:50;;;;;;;15.23;9.95;;;;;;;15.98;26.16;97628.63;9973853;29;20369;-77
2023/03/18 15:29:28;;;;;;;16.88;9.57;;;;;;;15.77;26.44;97626.28;9911854;29;20055;-78
2023/03/18 15:34:54;;;;;;;15.52;9.45;;;;;;;15.63;26.41;97631.25;9912360;29;20097;-77
2023/03/18 15:40:32;;;;;;;14.63;9.60;;;;;;;15.59;26.69;97622.59;9923175;29;20138;-76
2023/03/18 15:45:58;;;;;;;15.13;9.55;;;;;;;15.35;27.11;97628.56;9934865;29;20055;-76
2023/03/18 15:51:24;;;;;;;19.17;10.23;;;;;;;15.03;27.24;97633.34;9922841;29;20387;-76
2023/03/18 15:56:47;;;;;;;17.67;9.80;;;;;;;14.85;27.35;97636.00;9935341;29;20070;-76
2023/03/18 16:02:10;;;;;;;;;;;;;;;14.69;28.19;97640.09;9923183;29;20056;-76
2023/03/18 16:07:32;;;;;;;20.77;11.60;;;;;;;14.54;28.06;97642.19;9934758;29;19932;-76
2023/03/18 16:12:55;;;;;;;16.90;10.27;;;;;;;14.44;28.34;97654.97;9934535;29;20066;-76
2023/03/18 16:18:17;;;;;;;17.07;11.10;;;;;;;14.25;28.29;97661.72;9921808;29;20061;-76
2023/03/18 16:23:37;;;;;;;17.02;10.10;;;;;;;14.09;28.41;97660.88;9922005;29;20092;-76
2023/03/18 16:29:00;;;;;;;17.10;10.25;;;;;;;14.00;28.82;97668.16;9911604;29;20086;-76
2023/03/18 16:34:22;;;;;;;;;;;;;;;13.85;29.53;97675.09;9903040;29;20079;-76
2023/03/18 16:39:42;;;;;;;16.60;9.43;;;;;;;13.68;29.43;97678.34;9885580;30;19953;-79
2023/03/18 16:45:16;;;;;;;20.05;10.77;;;;;;;13.50;30.83;97674.56;9890299;30;20055;-79
2023/03/18 16:50:47;;;;;;;16.75;10.05;;;;;;;13.24;30.19;97682.25;9887443;30;20132;-79
2023/03/18 16:56:11;;;;;;;17.58;10.77;;;;;;;13.02;30.66;97682.41;9911516;30;20491;-79
2023/03/18 17:01:36;;;;;;;18.02;10.80;;;;;;;12.81;30.77;97691.72;9902922;30;20510;-79
2023/03/18 17:07:00;;;;;;;17.33;11.52;;;;;;;12.67;31.48;97693.00;9898647;30;20130;-76
2023/03/18 17:12:21;;;;;;;20.42;11.27;;;;;;;12.48;31.69;97699.59;9897449;30;20058;-77
2023/03/18 17:17:46;;;;;;;18.48;11.77;;;;;;;12.36;31.90;97687.66;9898447;30;20075;-78
2023/03/18 17:23:48;;;;;;;23.00;11.50;;;;;;;12.17;33.11;97683.78;9886399;30;20423;-78
2023/03/18 17:37:16;;;;;;;20.10;12.10;;;;;;;11.85;33.50;97676.94;9877314;30;20060;-76
2023/03/18 17:42:37;;;;;;;22.67;13.25;;;;;;;11.75;33.75;97673.47;9862126;30;20067;-77
2023/03/18 17:48:24;;;;;;;24.00;13.23;;;;;;;11.65;34.61;97678.44;9839337;30;20135;-76
2023/03/18 17:53:46;;;;;;;23.77;13.50;;;;;;;11.57;34.22;97689.84;9850167;30;20561;-76
2023/03/18 17:59:13;;;;;;;22.17;13.30;;;;;;;11.53;34.58;97694.47;9840202;30;20135;-77
2023/03/18 18:04:40;;;;;;;23.83;14.23;;;;;;;11.52;34.74;97702.13;9839498;30;20124;-79
2023/03/18 18:10:01;;;;;;;22.13;12.70;;;;;;;11.45;34.75;97680.72;9841692;30;20071;-77
2023/03/18 18:15:54;;;;;;;21.90;12.13;;;;;;;11.35;36.51;97682.88;9916944;30;20055;-78
2023/03/18 18:21:20;;;;;;;22.20;13.18;;;;;;;11.27;35.75;97673.97;9917583;30;20093;-78
2023/03/18 18:27:43;;;;;;;25.60;13.82;;;;;;;11.17;36.65;97674.78;9906837;30;20487;-78
2023/03/18 18:33:05;;;;;;;23.77;13.88;;;;;;;11.13;36.29;97674.53;9902509;30;20079;-79
2023/03/18 18:38:54;;;;;;;24.00;15.43;;;;;;;11.07;36.46;97684.56;9872787;29;20479;-77
2023/03/18 18:44:44;;;;;;;28.33;14.10;;;;;;;10.97;37.02;97679.06;9907057;29;20530;-78
2023/03/18 18:50:35;;;;;;;26.85;14.98;;;;;;;10.89;37.46;97684.13;9898668;30;20066;-79
2023/03/18 18:56:13;;;;;;;22.10;13.50;;;;;;;10.82;37.49;97668.31;9905416;30;20059;-78
2023/03/18 19:01:35;;;;;;;27.02;15.52;;;;;;;10.73;37.70;97677.50;9901930;30;20059;-77
2023/03/18 19:06:55;;;;;;;25.42;14.60;;;;;;;10.66;37.90;97679.16;9900722;30;20081;-77
2023/03/18 19:12:51;;;;;;;22.85;13.52;;;;;;;10.60;38.16;97679.47;9901773;30;20083;-77
2023/03/18 19:26:14;;;;;;;26.17;15.13;;;;;;;10.50;38.71;97678.78;9913365;30;20500;-77
2023/03/18 19:32:05;;;;;;;24.10;15.88;;;;;;;10.43;38.70;97676.94;9902669;30;20134;-77
2023/03/18 19:45:55;;;;;;;27.63;16.42;;;;;;;10.27;39.42;97678.63;9912329;30;20055;-77
2023/03/18 19:51:16;;;;;;;24.55;15.32;;;;;;;10.21;39.66;97672.63;9887746;30;20454;-77
2023/03/18 19:57:10;;;;;;;25.15;15.18;;;;;;;10.06;39.99;97665.34;9910418;29;20059;-76
2023/03/18 20:03:00;;;;;;;26.08;15.70;;;;;;;9.96;40.31;97667.47;9893744;30;20059;-77
2023/03/18 20:08:59;;;;;;;24.48;14.98;;;;;;;9.90;40.68;97670.56;9892930;30;20090;-77
2023/03/18 20:14:50;;;;;;;25.38;15.00;;;;;;;9.85;40.52;97663.25;9901199;30;20411;-77
2023/03/18 20:20:54;;;;;;;30.00;16.33;;;;;;;9.76;42.01;97658.44;9886345;30;20081;-77
2023/03/18 20:26:20;;;;;;;28.87;16.70;;;;;;;9.69;41.17;97662.13;9911028;30;20079;-77
2023/03/18 20:32:09;;;;;;;27.17;16.25;;;;;;;9.63;41.56;97664.47;9893064;30;20076;-77
2023/03/18 20:45:51;;;;;;;29.70;18.95;;;;;;;9.38;41.99;97659.25;9869806;29;20051;-77
2023/03/18 20:51:40;;;;;;;34.60;18.02;;;;;;;9.32;42.33;97659.56;9852245;29;20135;-77
2023/03/18 20:57:33;;;;;;;30.98;16.58;;;;;;;9.30;42.36;97669.84;9841736;30;20056;-78
2023/03/18 21:03:29;;;;;;;30.27;18.30;;;;;;;9.22;42.77;97672.75;9842632;30;20508;-77
2023/03/18 21:08:50;;;;;;;31.85;19.25;;;;;;;9.15;42.79;97662.50;9847959;30;20451;-77
2023/03/18 21:14:14;;;;;;;27.90;16.50;;;;;;;9.11;42.91;97673.38;9838723;30;20090;-77
2023/03/18 21:19:35;;;;;;;30.73;20.42;;;;;;;9.03;42.96;97681.13;9859955;30;20411;-77
2023/03/18 21:24:56;;;;;;;30.17;17.92;;;;;;;8.85;43.69;97684.06;9890132;30;20081;-77
2023/03/18 21:30:18;;;;;;;33.33;19.85;;;;;;;8.72;44.08;97681.72;9909956;29;20522;-77
2023/03/18 21:35:39;;;;;;;30.23;18.75;;;;;;;8.68;44.54;97683.44;9907096;29;20067;-77
2023/03/18 21:41:00;;;;;;;31.58;18.75;;;;;;;8.64;44.71;97683.88;9908487;29;20088;-77
2023/03/18 21:46:23;;;;;;;27.70;18.52;;;;;;;8.55;44.88;97682.56;9918407;29;20051;-77
2023/03/18 21:51:44;;;;;;;31.50;18.45;;;;;;;8.52;44.48;97677.44;9911425;29;20456;-77
2023/03/18 21:57:07;;;;;;;31.73;19.52;;;;;;;8.44;45.55;97676.81;9918728;29;20051;-77
2023/03/18 22:02:30;;;;;;;32.13;18.63;;;;;;;8.37;45.85;97675.63;9899519;29;20126;-77
2023/03/18 22:07:51;;;;;;;30.17;19.13;;;;;;;8.35;45.83;97680.31;9903258;29;20051;-77
2023/03/18 22:13:24;;;;;;;33.60;19.17;;;;;;;8.27;45.80;97685.97;9908908;29;20093;-77
2023/03/18 22:18:46;;;;;;;38.10;19.42;;;;;;;8.18;46.36;97695.75;9924869;29;20051;-77
2023/03/18 22:24:11;;;;;;;35.42;20.10;;;;;;;8.11;46.58;97696.63;9924590;29;20055;-76
2023/03/18 22:29:32;;;;;;;32.97;19.63;;;;;;;8.11;46.57;97682.72;9924674;29;20058;-77
2023/03/18 22:34:53;;;;;;;32.95;20.02;;;;;;;8.08;47.05;97681.09;9936810;29;20058;-77
2023/03/18 22:40:17;;;;;;;37.60;20.80;;;;;;;7.99;46.71;97674.16;9924790;29;20074;-77
2023/03/18 22:45:38;;;;;;;32.40;19.93;;;;;;;7.96;47.30;97669.03;9924290;29;20063;-77
2023/03/18 22:51:00;;;;;;;31.88;19.13;;;;;;;7.95;47.16;97675.91;9913602;29;20459;-77
2023/03/18 22:56:21;;;;;;;32.03;20.27;;;;;;;8.02;47.42;97673.03;9936123;29;20495;-77
2023/03/18 23:01:43;;;;;;;35.13;21.35;;;;;;;8.00;47.90;97670.06;9931642;24;20489;-77
2023/03/18 23:07:04;;;;;;;35.30;21.27;;;;;;;7.98;47.79;97683.09;9923117;29;20077;-76
2023/03/18 23:12:26;;;;;;;37.10;21.13;;;;;;;8.02;47.88;97678.59;9948083;29;20196;-77
2023/03/18 23:17:47;;;;;;;37.83;21.38;;;;;;;8.04;48.39;97675.22;9922713;29;20490;-77
2023/03/18 23:23:08;;;;;;;37.13;22.30;;;;;;;8.01;48.41;97665.28;9922554;29;20062;-77
2023/03/18 23:28:28;;;;;;;37.38;22.80;;;;;;;8.06;48.51;97667.03;9922343;29;20082;-77
2023/03/18 23:33:49;;;;;;;36.65;21.95;;;;;;;8.00;48.38;97674.91;9922656;29;20059;-77
2023/03/18 23:39:10;;;;;;;35.90;22.17;;;;;;;7.97;48.74;97670.50;9921579;29;20085;-77
2023/03/18 23:44:31;;;;;;;37.67;21.88;;;;;;;7.91;49.08;97668.00;9946198;29;20130;-77
2023/03/18 23:49:52;;;;;;;36.40;21.83;;;;;;;7.89;49.17;97669.88;9921338;29;20074;-77
2023/03/18 23:55:12;;;;;;;34.50;21.08;;;;;;;7.88;49.50;97671.19;9946360;29;20078;-77
